sensor_id;sensor_type;location;lat;lon;timestamp;P1;durP1;ratioP1;P2;durP2;ratioP2
22284;SDS011;11311;52.192;20.900;2023-09-19T00:00:42;15.20;;;13.60;;
22284;SDS011;11311;52.192;20.900;2023-09-19T00:03:15;18.30;;;13.43;;
22284;SDS011;11311;52.192;20.900;2023-09-19T00:05:44;16.25;;;14.13;;
22284;SDS011;11311;52.192;20.900;2023-09-19T00:08:14;14.57;;;13.18;;
22284;SDS011;11311;52.192;20.900;2023-09-19T00:10:44;19.02;;;14.60;;
22284;SDS011;11311;52.192;20.900;2023-09-19T00:13:13;16.35;;;14.75;;
22284;SDS011;11311;52.192;20.900;2023-09-19T00:15:43;15.82;;;14.25;;
22284;SDS011;11311;52.192;20.900;2023-09-19T00:18:17;18.63;;;14.70;;
22284;SDS011;11311;52.192;20.900;2023-09-19T00:20:49;15.55;;;13.82;;
22284;SDS011;11311;52.192;20.900;2023-09-19T00:25:49;15.38;;;13.98;;
22284;SDS011;11311;52.192;20.900;2023-09-19T00:30:47;15.82;;;14.13;;
22284;SDS011;11311;52.192;20.900;2023-09-19T00:33:18;16.52;;;14.25;;
22284;SDS011;11311;52.192;20.900;2023-09-19T00:35:48;17.92;;;13.82;;
22284;SDS011;11311;52.192;20.900;2023-09-19T00:38:17;15.85;;;13.52;;
22284;SDS011;11311;52.192;20.900;2023-09-19T00:40:49;17.10;;;15.15;;
22284;SDS011;11311;52.192;20.900;2023-09-19T00:43:19;18.35;;;15.65;;
22284;SDS011;11311;52.192;20.900;2023-09-19T00:45:53;16.35;;;14.80;;
22284;SDS011;11311;52.192;20.900;2023-09-19T00:50:52;16.95;;;15.10;;
22284;SDS011;11311;52.192;20.900;2023-09-19T00:53:21;19.87;;;15.57;;
22284;SDS011;11311;52.192;20.900;2023-09-19T00:55:57;15.63;;;14.02;;
22284;SDS011;11311;52.192;20.900;2023-09-19T00:58:26;16.55;;;14.77;;
22284;SDS011;11311;52.192;20.900;2023-09-19T01:01:00;18.08;;;15.20;;
22284;SDS011;11311;52.192;20.900;2023-09-19T01:03:30;19.38;;;15.43;;
22284;SDS011;11311;52.192;20.900;2023-09-19T01:06:01;18.17;;;16.25;;
22284;SDS011;11311;52.192;20.900;2023-09-19T01:08:30;21.05;;;14.68;;
22284;SDS011;11311;52.192;20.900;2023-09-19T01:11:06;16.13;;;14.50;;
22284;SDS011;11311;52.192;20.900;2023-09-19T01:13:43;18.23;;;14.93;;
22284;SDS011;11311;52.192;20.900;2023-09-19T01:16:19;16.55;;;14.75;;
22284;SDS011;11311;52.192;20.900;2023-09-19T01:18:52;16.73;;;14.43;;
22284;SDS011;11311;52.192;20.900;2023-09-19T01:21:26;16.92;;;15.23;;
22284;SDS011;11311;52.192;20.900;2023-09-19T01:24:15;16.92;;;15.02;;
22284;SDS011;11311;52.192;20.900;2023-09-19T01:27:00;18.08;;;16.27;;
22284;SDS011;11311;52.192;20.900;2023-09-19T01:29:37;17.85;;;16.02;;
22284;SDS011;11311;52.192;20.900;2023-09-19T01:32:08;17.10;;;15.30;;
22284;SDS011;11311;52.192;20.900;2023-09-19T01:34:43;17.50;;;15.75;;
22284;SDS011;11311;52.192;20.900;2023-09-19T01:37:15;18.48;;;14.60;;
22284;SDS011;11311;52.192;20.900;2023-09-19T01:39:47;17.58;;;14.23;;
22284;SDS011;11311;52.192;20.900;2023-09-19T01:42:21;16.80;;;15.07;;
22284;SDS011;11311;52.192;20.900;2023-09-19T01:45:00;16.38;;;14.43;;
22284;SDS011;11311;52.192;20.900;2023-09-19T01:47:35;17.08;;;15.32;;
22284;SDS011;11311;52.192;20.900;2023-09-19T01:50:11;18.08;;;15.60;;
22284;SDS011;11311;52.192;20.900;2023-09-19T01:52:43;20.17;;;15.07;;
22284;SDS011;11311;52.192;20.900;2023-09-19T01:55:16;18.30;;;15.35;;
22284;SDS011;11311;52.192;20.900;2023-09-19T01:57:48;18.13;;;16.40;;
22284;SDS011;11311;52.192;20.900;2023-09-19T02:00:21;16.63;;;14.98;;
22284;SDS011;11311;52.192;20.900;2023-09-19T02:02:54;16.35;;;14.75;;
22284;SDS011;11311;52.192;20.900;2023-09-19T02:05:26;18.70;;;16.13;;
22284;SDS011;11311;52.192;20.900;2023-09-19T02:07:55;18.20;;;14.65;;
22284;SDS011;11311;52.192;20.900;2023-09-19T02:12:54;16.77;;;15.10;;
22284;SDS011;11311;52.192;20.900;2023-09-19T02:15:23;17.70;;;15.52;;
22284;SDS011;11311;52.192;20.900;2023-09-19T02:17:54;16.40;;;14.77;;
22284;SDS011;11311;52.192;20.900;2023-09-19T02:20:24;17.60;;;14.65;;
22284;SDS011;11311;52.192;20.900;2023-09-19T02:22:53;19.85;;;15.48;;
22284;SDS011;11311;52.192;20.900;2023-09-19T02:25:22;19.58;;;16.13;;
22284;SDS011;11311;52.192;20.900;2023-09-19T02:27:54;17.10;;;15.30;;
22284;SDS011;11311;52.192;20.900;2023-09-19T02:30:26;18.63;;;16.73;;
22284;SDS011;11311;52.192;20.900;2023-09-19T02:32:57;15.93;;;14.37;;
22284;SDS011;11311;52.192;20.900;2023-09-19T02:35:28;21.75;;;16.15;;
22284;SDS011;11311;52.192;20.900;2023-09-19T02:38:01;17.15;;;15.32;;
22284;SDS011;11311;52.192;20.900;2023-09-19T02:40:33;19.88;;;15.45;;
22284;SDS011;11311;52.192;20.900;2023-09-19T02:45:32;18.25;;;16.30;;
22284;SDS011;11311;52.192;20.900;2023-09-19T02:48:03;19.40;;;17.38;;
22284;SDS011;11311;52.192;20.900;2023-09-19T02:50:34;18.60;;;15.55;;
22284;SDS011;11311;52.192;20.900;2023-09-19T02:53:03;16.85;;;15.18;;
22284;SDS011;11311;52.192;20.900;2023-09-19T02:55:33;16.97;;;15.33;;
22284;SDS011;11311;52.192;20.900;2023-09-19T02:58:02;23.00;;;16.33;;
22284;SDS011;11311;52.192;20.900;2023-09-19T03:00:34;17.60;;;15.27;;
22284;SDS011;11311;52.192;20.900;2023-09-19T03:03:05;20.73;;;16.17;;
22284;SDS011;11311;52.192;20.900;2023-09-19T03:05:35;19.25;;;16.52;;
22284;SDS011;11311;52.192;20.900;2023-09-19T03:08:05;19.23;;;16.48;;
22284;SDS011;11311;52.192;20.900;2023-09-19T03:10:34;21.67;;;15.38;;
22284;SDS011;11311;52.192;20.900;2023-09-19T03:13:04;18.35;;;16.55;;
22284;SDS011;11311;52.192;20.900;2023-09-19T03:15:40;18.60;;;16.65;;
22284;SDS011;11311;52.192;20.900;2023-09-19T03:18:12;23.80;;;16.52;;
22284;SDS011;11311;52.192;20.900;2023-09-19T03:20:42;20.20;;;18.00;;
22284;SDS011;11311;52.192;20.900;2023-09-19T03:23:11;19.48;;;16.33;;
22284;SDS011;11311;52.192;20.900;2023-09-19T03:25:40;17.75;;;16.10;;
22284;SDS011;11311;52.192;20.900;2023-09-19T03:28:10;21.42;;;17.33;;
22284;SDS011;11311;52.192;20.900;2023-09-19T03:30:39;17.33;;;15.63;;
22284;SDS011;11311;52.192;20.900;2023-09-19T03:33:08;19.25;;;16.85;;
22284;SDS011;11311;52.192;20.900;2023-09-19T03:35:41;16.35;;;14.68;;
22284;SDS011;11311;52.192;20.900;2023-09-19T03:38:11;19.38;;;17.60;;
22284;SDS011;11311;52.192;20.900;2023-09-19T03:40:40;20.98;;;17.52;;
22284;SDS011;11311;52.192;20.900;2023-09-19T03:43:09;17.40;;;15.70;;
22284;SDS011;11311;52.192;20.900;2023-09-19T03:45:38;19.20;;;17.30;;
22284;SDS011;11311;52.192;20.900;2023-09-19T03:48:08;19.02;;;17.15;;
22284;SDS011;11311;52.192;20.900;2023-09-19T03:50:37;31.10;;;18.85;;
22284;SDS011;11311;52.192;20.900;2023-09-19T03:53:08;21.73;;;17.60;;
22284;SDS011;11311;52.192;20.900;2023-09-19T03:55:37;19.27;;;17.25;;
22284;SDS011;11311;52.192;20.900;2023-09-19T03:58:06;19.00;;;17.13;;
22284;SDS011;11311;52.192;20.900;2023-09-19T04:00:35;20.40;;;17.23;;
22284;SDS011;11311;52.192;20.900;2023-09-19T04:03:06;25.13;;;18.10;;
22284;SDS011;11311;52.192;20.900;2023-09-19T04:05:35;19.55;;;15.15;;
22284;SDS011;11311;52.192;20.900;2023-09-19T04:08:04;21.70;;;16.95;;
22284;SDS011;11311;52.192;20.900;2023-09-19T04:10:34;22.30;;;17.17;;
22284;SDS011;11311;52.192;20.900;2023-09-19T04:13:03;19.02;;;16.58;;
22284;SDS011;11311;52.192;20.900;2023-09-19T04:15:33;19.50;;;17.25;;
22284;SDS011;11311;52.192;20.900;2023-09-19T04:18:03;22.63;;;15.82;;
22284;SDS011;11311;52.192;20.900;2023-09-19T04:20:32;18.73;;;16.67;;
22284;SDS011;11311;52.192;20.900;2023-09-19T04:23:02;18.10;;;16.03;;
22284;SDS011;11311;52.192;20.900;2023-09-19T04:25:31;19.23;;;16.30;;
22284;SDS011;11311;52.192;20.900;2023-09-19T04:28:02;21.55;;;16.77;;
22284;SDS011;11311;52.192;20.900;2023-09-19T04:30:31;19.20;;;17.38;;
22284;SDS011;11311;52.192;20.900;2023-09-19T04:33:00;19.35;;;17.48;;
22284;SDS011;11311;52.192;20.900;2023-09-19T04:35:34;20.00;;;17.88;;
22284;SDS011;11311;52.192;20.900;2023-09-19T04:38:03;18.92;;;16.90;;
22284;SDS011;11311;52.192;20.900;2023-09-19T04:40:33;22.90;;;16.25;;
22284;SDS011;11311;52.192;20.900;2023-09-19T04:43:04;23.02;;;15.35;;
22284;SDS011;11311;52.192;20.900;2023-09-19T04:45:34;18.85;;;16.90;;
22284;SDS011;11311;52.192;20.900;2023-09-19T04:48:04;18.13;;;16.45;;
22284;SDS011;11311;52.192;20.900;2023-09-19T04:50:33;21.05;;;16.33;;
22284;SDS011;11311;52.192;20.900;2023-09-19T04:53:02;18.10;;;16.23;;
22284;SDS011;11311;52.192;20.900;2023-09-19T04:55:31;20.95;;;16.67;;
22284;SDS011;11311;52.192;20.900;2023-09-19T04:58:00;17.23;;;14.73;;
22284;SDS011;11311;52.192;20.900;2023-09-19T05:00:31;19.70;;;15.20;;
22284;SDS011;11311;52.192;20.900;2023-09-19T05:03:02;18.15;;;16.20;;
22284;SDS011;11311;52.192;20.900;2023-09-19T05:05:33;17.90;;;15.02;;
22284;SDS011;11311;52.192;20.900;2023-09-19T05:08:02;18.45;;;16.60;;
22284;SDS011;11311;52.192;20.900;2023-09-19T05:10:32;17.35;;;15.48;;
22284;SDS011;11311;52.192;20.900;2023-09-19T05:13:02;18.35;;;16.45;;
22284;SDS011;11311;52.192;20.900;2023-09-19T05:15:33;19.08;;;15.75;;
22284;SDS011;11311;52.192;20.900;2023-09-19T05:18:03;18.50;;;16.58;;
22284;SDS011;11311;52.192;20.900;2023-09-19T05:20:34;16.45;;;14.75;;
22284;SDS011;11311;52.192;20.900;2023-09-19T05:23:05;17.73;;;15.75;;
22284;SDS011;11311;52.192;20.900;2023-09-19T05:25:39;18.45;;;16.65;;
22284;SDS011;11311;52.192;20.900;2023-09-19T05:28:09;18.55;;;15.30;;
22284;SDS011;11311;52.192;20.900;2023-09-19T05:30:43;19.55;;;16.05;;
22284;SDS011;11311;52.192;20.900;2023-09-19T05:33:15;16.42;;;14.80;;
22284;SDS011;11311;52.192;20.900;2023-09-19T05:35:45;17.33;;;13.70;;
22284;SDS011;11311;52.192;20.900;2023-09-19T05:38:17;17.10;;;14.68;;
22284;SDS011;11311;52.192;20.900;2023-09-19T05:40:47;16.90;;;13.98;;
22284;SDS011;11311;52.192;20.900;2023-09-19T05:43:16;16.92;;;14.55;;
22284;SDS011;11311;52.192;20.900;2023-09-19T05:45:47;19.85;;;16.02;;
22284;SDS011;11311;52.192;20.900;2023-09-19T05:48:19;18.88;;;15.80;;
22284;SDS011;11311;52.192;20.900;2023-09-19T05:50:49;27.95;;;16.45;;
22284;SDS011;11311;52.192;20.900;2023-09-19T05:53:18;18.85;;;14.43;;
22284;SDS011;11311;52.192;20.900;2023-09-19T05:55:47;16.48;;;13.48;;
22284;SDS011;11311;52.192;20.900;2023-09-19T05:58:17;20.42;;;13.98;;
22284;SDS011;11311;52.192;20.900;2023-09-19T06:00:48;17.73;;;15.73;;
22284;SDS011;11311;52.192;20.900;2023-09-19T06:03:18;15.65;;;14.00;;
22284;SDS011;11311;52.192;20.900;2023-09-19T06:05:47;17.07;;;14.97;;
22284;SDS011;11311;52.192;20.900;2023-09-19T06:08:17;15.60;;;14.05;;
22284;SDS011;11311;52.192;20.900;2023-09-19T06:10:47;17.25;;;14.82;;
22284;SDS011;11311;52.192;20.900;2023-09-19T06:13:16;17.40;;;15.73;;
22284;SDS011;11311;52.192;20.900;2023-09-19T06:15:49;16.02;;;13.13;;
22284;SDS011;11311;52.192;20.900;2023-09-19T06:18:19;16.73;;;13.70;;
22284;SDS011;11311;52.192;20.900;2023-09-19T06:20:47;17.08;;;14.10;;
22284;SDS011;11311;52.192;20.900;2023-09-19T06:23:18;15.85;;;14.30;;
22284;SDS011;11311;52.192;20.900;2023-09-19T06:25:50;15.48;;;13.90;;
22284;SDS011;11311;52.192;20.900;2023-09-19T06:28:19;18.27;;;14.27;;
22284;SDS011;11311;52.192;20.900;2023-09-19T06:30:53;14.48;;;13.18;;
22284;SDS011;11311;52.192;20.900;2023-09-19T06:33:22;15.88;;;13.93;;
22284;SDS011;11311;52.192;20.900;2023-09-19T06:35:51;15.70;;;14.10;;
22284;SDS011;11311;52.192;20.900;2023-09-19T06:38:26;19.95;;;13.70;;
22284;SDS011;11311;52.192;20.900;2023-09-19T06:40:55;14.13;;;12.68;;
22284;SDS011;11311;52.192;20.900;2023-09-19T06:43:24;15.55;;;13.95;;
22284;SDS011;11311;52.192;20.900;2023-09-19T06:45:54;17.27;;;14.07;;
22284;SDS011;11311;52.192;20.900;2023-09-19T06:48:24;14.43;;;12.98;;
22284;SDS011;11311;52.192;20.900;2023-09-19T06:50:53;22.27;;;13.48;;
22284;SDS011;11311;52.192;20.900;2023-09-19T06:53:23;15.33;;;13.63;;
22284;SDS011;11311;52.192;20.900;2023-09-19T06:55:51;13.45;;;11.10;;
22284;SDS011;11311;52.192;20.900;2023-09-19T06:58:21;16.80;;;14.05;;
22284;SDS011;11311;52.192;20.900;2023-09-19T07:00:50;18.73;;;11.75;;
22284;SDS011;11311;52.192;20.900;2023-09-19T07:03:20;16.70;;;12.63;;
22284;SDS011;11311;52.192;20.900;2023-09-19T07:05:53;14.20;;;12.65;;
22284;SDS011;11311;52.192;20.900;2023-09-19T07:08:23;15.60;;;11.52;;
22284;SDS011;11311;52.192;20.900;2023-09-19T07:10:52;13.98;;;12.38;;
22284;SDS011;11311;52.192;20.900;2023-09-19T07:13:21;24.30;;;12.77;;
22284;SDS011;11311;52.192;20.900;2023-09-19T07:15:52;14.05;;;11.20;;
22284;SDS011;11311;52.192;20.900;2023-09-19T07:18:23;14.30;;;11.50;;
22284;SDS011;11311;52.192;20.900;2023-09-19T07:23:28;19.45;;;12.77;;
22284;SDS011;11311;52.192;20.900;2023-09-19T07:26:02;13.68;;;12.32;;
22284;SDS011;11311;52.192;20.900;2023-09-19T07:28:32;20.90;;;12.85;;
22284;SDS011;11311;52.192;20.900;2023-09-19T07:31:02;17.55;;;12.65;;
22284;SDS011;11311;52.192;20.900;2023-09-19T07:33:35;17.67;;;13.73;;
22284;SDS011;11311;52.192;20.900;2023-09-19T07:36:05;24.33;;;14.52;;
22284;SDS011;11311;52.192;20.900;2023-09-19T07:38:35;17.67;;;13.10;;
22284;SDS011;11311;52.192;20.900;2023-09-19T07:41:04;17.83;;;14.65;;
22284;SDS011;11311;52.192;20.900;2023-09-19T07:43:33;17.75;;;14.27;;
22284;SDS011;11311;52.192;20.900;2023-09-19T07:46:03;19.95;;;14.57;;
22284;SDS011;11311;52.192;20.900;2023-09-19T07:48:35;15.73;;;14.20;;
22284;SDS011;11311;52.192;20.900;2023-09-19T07:51:08;24.73;;;14.45;;
22284;SDS011;11311;52.192;20.900;2023-09-19T07:53:37;21.30;;;15.50;;
22284;SDS011;11311;52.192;20.900;2023-09-19T07:56:07;18.38;;;14.10;;
22284;SDS011;11311;52.192;20.900;2023-09-19T07:58:38;17.08;;;15.02;;
22284;SDS011;11311;52.192;20.900;2023-09-19T08:01:08;21.05;;;16.45;;
22284;SDS011;11311;52.192;20.900;2023-09-19T08:03:42;17.42;;;15.00;;
22284;SDS011;11311;52.192;20.900;2023-09-19T08:06:12;20.27;;;14.70;;
22284;SDS011;11311;52.192;20.900;2023-09-19T08:08:41;20.35;;;14.07;;
22284;SDS011;11311;52.192;20.900;2023-09-19T08:11:10;18.40;;;14.80;;
22284;SDS011;11311;52.192;20.900;2023-09-19T08:13:39;15.98;;;14.38;;
22284;SDS011;11311;52.192;20.900;2023-09-19T08:16:11;21.02;;;14.38;;
22284;SDS011;11311;52.192;20.900;2023-09-19T08:18:46;18.45;;;13.55;;
22284;SDS011;11311;52.192;20.900;2023-09-19T08:21:15;17.98;;;14.55;;
22284;SDS011;11311;52.192;20.900;2023-09-19T08:23:44;17.90;;;12.80;;
22284;SDS011;11311;52.192;20.900;2023-09-19T08:26:13;14.85;;;13.18;;
22284;SDS011;11311;52.192;20.900;2023-09-19T08:28:42;16.50;;;12.13;;
22284;SDS011;11311;52.192;20.900;2023-09-19T08:31:12;20.10;;;14.15;;
22284;SDS011;11311;52.192;20.900;2023-09-19T08:33:41;19.58;;;13.52;;
22284;SDS011;11311;52.192;20.900;2023-09-19T08:36:13;16.20;;;12.65;;
22284;SDS011;11311;52.192;20.900;2023-09-19T08:41:11;16.38;;;14.57;;
22284;SDS011;11311;52.192;20.900;2023-09-19T08:43:40;14.82;;;13.32;;
22284;SDS011;11311;52.192;20.900;2023-09-19T08:46:10;16.63;;;14.73;;
22284;SDS011;11311;52.192;20.900;2023-09-19T08:48:44;16.73;;;14.40;;
22284;SDS011;11311;52.192;20.900;2023-09-19T08:51:21;21.15;;;15.35;;
22284;SDS011;11311;52.192;20.900;2023-09-19T08:53:58;16.05;;;14.50;;
22284;SDS011;11311;52.192;20.900;2023-09-19T08:56:32;20.80;;;14.85;;
22284;SDS011;11311;52.192;20.900;2023-09-19T08:59:03;15.07;;;12.97;;
22284;SDS011;11311;52.192;20.900;2023-09-19T09:01:34;14.15;;;12.73;;
22284;SDS011;11311;52.192;20.900;2023-09-19T09:04:05;15.25;;;12.52;;
22284;SDS011;11311;52.192;20.900;2023-09-19T09:06:42;18.35;;;11.85;;
22284;SDS011;11311;52.192;20.900;2023-09-19T09:09:12;14.23;;;10.18;;
22284;SDS011;11311;52.192;20.900;2023-09-19T09:11:41;11.32;;;9.95;;
22284;SDS011;11311;52.192;20.900;2023-09-19T09:14:10;14.23;;;9.93;;
22284;SDS011;11311;52.192;20.900;2023-09-19T09:16:39;15.43;;;11.23;;
22284;SDS011;11311;52.192;20.900;2023-09-19T09:19:09;15.43;;;10.38;;
22284;SDS011;11311;52.192;20.900;2023-09-19T09:21:40;14.20;;;10.05;;
22284;SDS011;11311;52.192;20.900;2023-09-19T09:24:29;14.82;;;10.68;;
22284;SDS011;11311;52.192;20.900;2023-09-19T09:27:03;16.48;;;11.70;;
22284;SDS011;11311;52.192;20.900;2023-09-19T09:29:44;23.13;;;14.68;;
22284;SDS011;11311;52.192;20.900;2023-09-19T09:32:17;26.40;;;13.15;;
22284;SDS011;11311;52.192;20.900;2023-09-19T09:34:49;17.17;;;14.15;;
22284;SDS011;11311;52.192;20.900;2023-09-19T09:37:20;19.13;;;15.85;;
22284;SDS011;11311;52.192;20.900;2023-09-19T09:39:55;22.80;;;16.52;;
22284;SDS011;11311;52.192;20.900;2023-09-19T09:42:29;23.15;;;16.92;;
22284;SDS011;11311;52.192;20.900;2023-09-19T09:45:16;20.98;;;16.88;;
22284;SDS011;11311;52.192;20.900;2023-09-19T09:47:47;21.60;;;18.15;;
22284;SDS011;11311;52.192;20.900;2023-09-19T09:50:28;19.98;;;16.60;;
22284;SDS011;11311;52.192;20.900;2023-09-19T09:53:23;23.80;;;17.48;;
22284;SDS011;11311;52.192;20.900;2023-09-19T09:55:58;21.58;;;16.17;;
22284;SDS011;11311;52.192;20.900;2023-09-19T09:58:33;21.75;;;15.52;;
22284;SDS011;11311;52.192;20.900;2023-09-19T10:01:04;19.10;;;13.18;;
22284;SDS011;11311;52.192;20.900;2023-09-19T10:03:39;18.65;;;14.18;;
22284;SDS011;11311;52.192;20.900;2023-09-19T10:06:11;14.60;;;11.88;;
22284;SDS011;11311;52.192;20.900;2023-09-19T10:08:59;15.38;;;11.57;;
22284;SDS011;11311;52.192;20.900;2023-09-19T10:11:40;12.85;;;11.73;;
22284;SDS011;11311;52.192;20.900;2023-09-19T10:14:11;12.68;;;11.48;;
22284;SDS011;11311;52.192;20.900;2023-09-19T10:16:44;12.15;;;10.50;;
22284;SDS011;11311;52.192;20.900;2023-09-19T10:19:16;12.32;;;11.07;;
22284;SDS011;11311;52.192;20.900;2023-09-19T10:21:53;12.18;;;10.98;;
22284;SDS011;11311;52.192;20.900;2023-09-19T10:24:25;13.23;;;11.60;;
22284;SDS011;11311;52.192;20.900;2023-09-19T10:26:55;15.52;;;12.13;;
22284;SDS011;11311;52.192;20.900;2023-09-19T10:29:25;13.48;;;11.23;;
22284;SDS011;11311;52.192;20.900;2023-09-19T10:31:56;12.98;;;10.40;;
22284;SDS011;11311;52.192;20.900;2023-09-19T10:34:27;13.63;;;11.63;;
22284;SDS011;11311;52.192;20.900;2023-09-19T10:36:58;14.35;;;9.60;;
22284;SDS011;11311;52.192;20.900;2023-09-19T10:39:35;10.48;;;9.57;;
22284;SDS011;11311;52.192;20.900;2023-09-19T10:42:06;11.73;;;10.25;;
22284;SDS011;11311;52.192;20.900;2023-09-19T10:44:37;12.57;;;9.88;;
22284;SDS011;11311;52.192;20.900;2023-09-19T10:47:09;11.07;;;9.98;;
22284;SDS011;11311;52.192;20.900;2023-09-19T10:49:42;14.50;;;9.48;;
22284;SDS011;11311;52.192;20.900;2023-09-19T10:52:14;14.82;;;10.55;;
22284;SDS011;11311;52.192;20.900;2023-09-19T10:54:48;13.10;;;10.57;;
22284;SDS011;11311;52.192;20.900;2023-09-19T10:57:22;11.45;;;10.23;;
22284;SDS011;11311;52.192;20.900;2023-09-19T11:00:01;11.30;;;9.25;;
22284;SDS011;11311;52.192;20.900;2023-09-19T11:06:00;9.52;;;8.45;;
22284;SDS011;11311;52.192;20.900;2023-09-19T11:11:45;9.95;;;9.00;;
22284;SDS011;11311;52.192;20.900;2023-09-19T11:14:30;12.65;;;9.38;;
22284;SDS011;11311;52.192;20.900;2023-09-19T11:20:20;9.98;;;8.15;;
22284;SDS011;11311;52.192;20.900;2023-09-19T11:23:17;13.15;;;7.88;;
22284;SDS011;11311;52.192;20.900;2023-09-19T11:25:45;10.52;;;7.25;;
22284;SDS011;11311;52.192;20.900;2023-09-19T11:28:31;13.52;;;8.13;;
22284;SDS011;11311;52.192;20.900;2023-09-19T11:43:30;12.85;;;8.05;;
22284;SDS011;11311;52.192;20.900;2023-09-19T11:46:08;9.80;;;7.88;;
22284;SDS011;11311;52.192;20.900;2023-09-19T11:48:38;10.88;;;8.20;;
22284;SDS011;11311;52.192;20.900;2023-09-19T11:51:19;9.48;;;7.80;;
22284;SDS011;11311;52.192;20.900;2023-09-19T11:53:51;8.68;;;7.82;;
22284;SDS011;11311;52.192;20.900;2023-09-19T11:56:20;20.03;;;9.37;;
22284;SDS011;11311;52.192;20.900;2023-09-19T11:58:53;11.77;;;8.93;;
22284;SDS011;11311;52.192;20.900;2023-09-19T12:01:23;12.35;;;8.65;;
22284;SDS011;11311;52.192;20.900;2023-09-19T12:03:57;19.52;;;10.30;;
22284;SDS011;11311;52.192;20.900;2023-09-19T12:06:28;15.50;;;7.80;;
22284;SDS011;11311;52.192;20.900;2023-09-19T12:08:59;15.52;;;8.80;;
22284;SDS011;11311;52.192;20.900;2023-09-19T12:11:29;18.45;;;8.70;;
22284;SDS011;11311;52.192;20.900;2023-09-19T12:14:02;11.05;;;8.20;;
22284;SDS011;11311;52.192;20.900;2023-09-19T12:21:56;14.13;;;8.82;;
22284;SDS011;11311;52.192;20.900;2023-09-19T12:24:27;10.30;;;7.82;;
22284;SDS011;11311;52.192;20.900;2023-09-19T12:27:01;9.68;;;6.57;;
22284;SDS011;11311;52.192;20.900;2023-09-19T12:29:43;10.50;;;8.35;;
22284;SDS011;11311;52.192;20.900;2023-09-19T12:32:12;8.75;;;7.85;;
22284;SDS011;11311;52.192;20.900;2023-09-19T12:34:41;9.57;;;8.32;;
22284;SDS011;11311;52.192;20.900;2023-09-19T12:37:11;10.85;;;8.77;;
22284;SDS011;11311;52.192;20.900;2023-09-19T12:39:43;9.43;;;8.07;;
22284;SDS011;11311;52.192;20.900;2023-09-19T12:42:17;14.80;;;8.55;;
22284;SDS011;11311;52.192;20.900;2023-09-19T12:44:49;13.30;;;9.50;;
22284;SDS011;11311;52.192;20.900;2023-09-19T12:47:22;13.70;;;10.48;;
22284;SDS011;11311;52.192;20.900;2023-09-19T12:50:08;10.00;;;8.98;;
22284;SDS011;11311;52.192;20.900;2023-09-19T12:52:52;12.88;;;9.07;;
22284;SDS011;11311;52.192;20.900;2023-09-19T12:55:24;15.77;;;9.73;;
22284;SDS011;11311;52.192;20.900;2023-09-19T12:58:08;15.20;;;10.23;;
22284;SDS011;11311;52.192;20.900;2023-09-19T13:00:41;11.35;;;8.43;;
22284;SDS011;11311;52.192;20.900;2023-09-19T13:03:16;13.98;;;9.07;;
22284;SDS011;11311;52.192;20.900;2023-09-19T13:05:50;10.15;;;8.55;;
22284;SDS011;11311;52.192;20.900;2023-09-19T13:08:23;11.13;;;9.32;;
22284;SDS011;11311;52.192;20.900;2023-09-19T13:11:05;17.98;;;8.80;;
22284;SDS011;11311;52.192;20.900;2023-09-19T13:13:41;13.15;;;7.95;;
22284;SDS011;11311;52.192;20.900;2023-09-19T13:16:17;13.85;;;10.20;;
22284;SDS011;11311;52.192;20.900;2023-09-19T13:18:50;14.57;;;9.52;;
22284;SDS011;11311;52.192;20.900;2023-09-19T13:21:27;9.90;;;8.18;;
22284;SDS011;11311;52.192;20.900;2023-09-19T13:26:47;17.83;;;10.27;;
22284;SDS011;11311;52.192;20.900;2023-09-19T13:29:16;13.18;;;8.95;;
22284;SDS011;11311;52.192;20.900;2023-09-19T13:31:47;11.43;;;8.27;;
22284;SDS011;11311;52.192;20.900;2023-09-19T13:34:17;10.02;;;8.20;;
22284;SDS011;11311;52.192;20.900;2023-09-19T13:36:46;10.80;;;9.70;;
22284;SDS011;11311;52.192;20.900;2023-09-19T13:39:17;10.57;;;8.18;;
22284;SDS011;11311;52.192;20.900;2023-09-19T13:41:46;11.27;;;8.88;;
22284;SDS011;11311;52.192;20.900;2023-09-19T13:44:16;12.38;;;11.02;;
22284;SDS011;11311;52.192;20.900;2023-09-19T13:46:45;12.00;;;8.73;;
22284;SDS011;11311;52.192;20.900;2023-09-19T13:49:16;13.25;;;9.57;;
22284;SDS011;11311;52.192;20.900;2023-09-19T13:51:48;11.75;;;9.68;;
22284;SDS011;11311;52.192;20.900;2023-09-19T13:54:17;13.27;;;10.80;;
22284;SDS011;11311;52.192;20.900;2023-09-19T13:56:48;12.15;;;10.32;;
22284;SDS011;11311;52.192;20.900;2023-09-19T14:01:48;18.60;;;10.63;;
22284;SDS011;11311;52.192;20.900;2023-09-19T14:04:18;14.67;;;11.53;;
22284;SDS011;11311;52.192;20.900;2023-09-19T14:06:48;12.20;;;10.75;;
22284;SDS011;11311;52.192;20.900;2023-09-19T14:09:17;13.50;;;11.13;;
22284;SDS011;11311;52.192;20.900;2023-09-19T14:11:46;11.90;;;7.78;;
22284;SDS011;11311;52.192;20.900;2023-09-19T14:14:17;9.05;;;7.80;;
22284;SDS011;11311;52.192;20.900;2023-09-19T14:19:15;11.38;;;6.18;;
22284;SDS011;11311;52.192;20.900;2023-09-19T14:21:45;8.82;;;6.32;;
22284;SDS011;11311;52.192;20.900;2023-09-19T14:24:16;7.97;;;6.57;;
22284;SDS011;11311;52.192;20.900;2023-09-19T14:26:45;10.85;;;6.32;;
22284;SDS011;11311;52.192;20.900;2023-09-19T14:29:14;7.85;;;5.88;;
22284;SDS011;11311;52.192;20.900;2023-09-19T14:31:43;9.25;;;6.15;;
22284;SDS011;11311;52.192;20.900;2023-09-19T14:34:12;6.90;;;6.13;;
22284;SDS011;11311;52.192;20.900;2023-09-19T14:36:42;10.10;;;5.50;;
22284;SDS011;11311;52.192;20.900;2023-09-19T14:39:12;13.38;;;7.15;;
22284;SDS011;11311;52.192;20.900;2023-09-19T14:41:41;9.18;;;5.53;;
22284;SDS011;11311;52.192;20.900;2023-09-19T14:44:10;8.75;;;6.05;;
22284;SDS011;11311;52.192;20.900;2023-09-19T14:46:39;8.32;;;6.43;;
22284;SDS011;11311;52.192;20.900;2023-09-19T14:49:08;11.35;;;7.00;;
22284;SDS011;11311;52.192;20.900;2023-09-19T14:51:38;8.32;;;6.32;;
22284;SDS011;11311;52.192;20.900;2023-09-19T14:56:38;7.38;;;5.88;;
22284;SDS011;11311;52.192;20.900;2023-09-19T14:59:11;8.20;;;5.80;;
22284;SDS011;11311;52.192;20.900;2023-09-19T15:01:40;6.50;;;5.90;;
22284;SDS011;11311;52.192;20.900;2023-09-19T15:04:09;7.97;;;5.50;;
22284;SDS011;11311;52.192;20.900;2023-09-19T15:06:38;10.90;;;5.80;;
22284;SDS011;11311;52.192;20.900;2023-09-19T15:09:07;10.18;;;6.32;;
22284;SDS011;11311;52.192;20.900;2023-09-19T15:11:37;9.68;;;6.18;;
22284;SDS011;11311;52.192;20.900;2023-09-19T15:16:36;11.63;;;5.55;;
22284;SDS011;11311;52.192;20.900;2023-09-19T15:19:07;5.63;;;5.05;;
22284;SDS011;11311;52.192;20.900;2023-09-19T15:21:37;7.28;;;5.28;;
22284;SDS011;11311;52.192;20.900;2023-09-19T15:24:07;6.95;;;5.22;;
22284;SDS011;11311;52.192;20.900;2023-09-19T15:26:38;7.60;;;5.67;;
22284;SDS011;11311;52.192;20.900;2023-09-19T15:29:08;9.32;;;5.30;;
22284;SDS011;11311;52.192;20.900;2023-09-19T15:31:37;7.78;;;5.32;;
22284;SDS011;11311;52.192;20.900;2023-09-19T15:34:06;7.43;;;5.18;;
22284;SDS011;11311;52.192;20.900;2023-09-19T15:36:36;6.18;;;5.05;;